Tenko Maru — HPRN — position and weather

sailwx.info

Track history (hours):
 
Tides and Currents Weather Stations Pressure Air Temp Water Temp Dewpoint Dewpoint Depression Visibility Wind Speed Wind Dir Waves Ship Positions

Tenko Maru

Last reported at 2015-May-27 10:29 UTC. Time now 2015-May-27 18:02 UTC.
Position N 36°08' E 122°10'.

Length 190 m; draft 7.6 m.

Type: Cargo ship. MMSI: 370715000.

Date/timePositionNaut miles runAvg speedWind from/ knotsBaromVisibWave heightAir tempDewpointWater temp
2015-May-27 10:29N 36°08' E 122°10'1311.7
2015-May-27 09:22N 36°16' E 122°23'1011.8
2015-May-27 08:33N 36°21' E 122°33'1111.2
2015-May-27 07:33N 36°31' E 122°38'1111.3
2015-May-27 06:33N 36°43' E 122°41'1110.9
2015-May-27 05:33N 36°53' E 122°43'1010.5
2015-May-27 04:33N 37°04' E 122°45'1010.5
2015-May-27 03:33N 37°14' E 122°47'1110.8
2015-May-27 02:34N 37°25' E 122°47'1010.0
2015-May-27 01:33N 37°32' E 122°38'1211.6
2015-May-27 00:34N 37°39' E 122°26'1211.8
2015-May-26 23:33N 37°46' E 122°15'1312.4
2015-May-26 22:33N 37°54' E 122°02'1412.9
2015-May-26 21:28N 38°02' E 121°48'1112.0
2015-May-26 20:32N 38°09' E 121°36'17411.4
2015-May-26 05:17N 38°55' E 118°02'811.0
2015-May-26 04:33N 38°57' E 117°52'6 5.5
2015-May-26 03:31N 38°59' E 117°45'0 0.0
2015-May-26 02:31N 38°59' E 117°45'0 0.0
2015-May-26 01:31N 38°59' E 117°45'0 0.0
2015-May-26 00:31N 38°59' E 117°45'0 0.0
2015-May-25 23:31N 38°59' E 117°45'0 0.0
2015-May-25 22:25N 38°59' E 117°45'0 0.0
2015-May-25 21:31N 38°59' E 117°45'0 0.0
2015-May-25 20:31N 38°59' E 117°45'0 0.0
2015-May-25 19:25N 38°59' E 117°45'0 0.0
2015-May-25 18:31N 38°59' E 117°45'0 0.0
2015-May-25 17:31N 38°59' E 117°45'0 0.0
2015-May-25 16:25N 38°59' E 117°45'0 0.0
2015-May-25 15:31N 38°59' E 117°45'0 0.0
2015-May-25 14:31N 38°59' E 117°45'0 0.0
2015-May-25 13:31N 38°59' E 117°45'0 0.0
2015-May-25 12:31N 38°59' E 117°45'0 0.0
2015-May-25 11:31N 38°59' E 117°45'0 0.0
2015-May-25 10:31N 38°59' E 117°45'0 0.0
2015-May-25 09:31N 38°59' E 117°45'0 0.0
2015-May-25 08:31N 38°59' E 117°45'0 0.0
2015-May-25 07:31N 38°59' E 117°45'0 0.0
2015-May-25 06:31N 38°59' E 117°45'0 0.0
2015-May-25 05:31N 38°59' E 117°45'0 0.0
2015-May-25 04:31N 38°59' E 117°45'0 0.0
2015-May-25 03:31N 38°59' E 117°45'0 0.0
2015-May-25 02:31N 38°59' E 117°45'0 0.0
2015-May-25 01:31N 38°59' E 117°45'0 0.0
2015-May-25 00:31N 38°59' E 117°45'0 0.0
2015-May-24 23:31N 38°59' E 117°45'0 0.0
2015-May-24 22:25N 38°59' E 117°45'0 0.0
2015-May-24 21:31N 38°59' E 117°45'0 0.0
2015-May-24 20:31N 38°59' E 117°45'0 0.0
2015-May-24 19:31N 38°59' E 117°45'0 0.0
2015-May-24 18:31N 38°59' E 117°45'0 0.0
2015-May-24 17:31N 38°59' E 117°45'0 0.0
2015-May-24 16:31N 38°59' E 117°45'0 0.0
2015-May-24 15:31N 38°59' E 117°45'0 0.0
2015-May-24 14:31N 38°59' E 117°45'0 0.0
2015-May-24 13:31N 38°59' E 117°45'0 0.0
2015-May-24 12:31N 38°59' E 117°45'0 0.0
2015-May-24 11:31N 38°59' E 117°45'0 0.0
2015-May-24 10:25N 38°59' E 117°45'0 0.0
2015-May-24 09:31N 38°59' E 117°45'0 0.0
2015-May-24 08:31N 38°59' E 117°45'0 0.0
2015-May-24 07:31N 38°59' E 117°45'0 0.0
2015-May-24 06:31N 38°59' E 117°45'0 0.0
2015-May-24 05:31N 38°59' E 117°45'0 0.0
2015-May-24 04:31N 38°59' E 117°45'0 0.0
2015-May-24 03:31N 38°59' E 117°45'1 0.6
2015-May-24 02:33N 38°59' E 117°45'10 9.6
2015-May-24 01:33N 38°57' E 117°58'8 8.3
2015-May-24 00:32N 38°56' E 118°08'2 2.3
2015-May-23 23:30N 38°56' E 118°11'0 0.1
2015-May-23 22:18N 38°56' E 118°11'0 0.1
2015-May-23 21:30N 38°56' E 118°11'0 0.0
2015-May-23 20:24N 38°56' E 118°11'0 0.0
2015-May-23 19:24N 38°56' E 118°11'0 0.0
2015-May-23 17:18N 38°56' E 118°11'0 0.1
2015-May-23 16:18N 38°56' E 118°11'1 0.2
2015-May-23 09:31N 38°55' E 118°10'5 2.3
2015-May-23 07:29N 38°57' E 118°04'16211.3
2015-May-22 17:12N 38°26' E 121°28'811.7
2015-May-22 16:29N 38°23' E 121°38'1111.6
2015-May-22 15:31N 38°19' E 121°51'11810.7
2015-May-22 04:31N 36°58' E 123°41'1111.7
2015-May-22 03:33N 36°48' E 123°46'1211.7
2015-May-22 02:32N 36°38' E 123°54'1211.8
2015-May-22 01:31N 36°26' E 123°53'1212.6
2015-May-22 00:34N 36°14' E 123°57'1312.4
2015-May-21 23:32N 36°02' E 124°02'1212.0
2015-May-21 22:32N 35°50' E 124°06'1211.9
2015-May-21 21:32N 35°39' E 124°11'1211.8
2015-May-21 20:30N 35°27' E 124°15'1212.6
2015-May-21 19:34N 35°16' E 124°19'30710.1
2015-May-20 13:09N 34°01' E 130°21'812.8
2015-May-20 12:32N 34°02' E 130°31'1312.8
2015-May-20 11:31N 34°03' E 130°46'  
Track history (hours):
 
Tides and Currents Weather Stations Pressure Air Temp Water Temp Dewpoint Dewpoint Depression Visibility Wind Speed Wind Dir Waves Ship Positions

Tenko Maru

Last reported at 2015-May-27 10:29 UTC. Time now 2015-May-27 18:02 UTC.
Position N 36°08' E 122°10'.

Length 190 m; draft 7.6 m.

Type: Cargo ship. MMSI: 370715000.

Date/timePositionNaut miles runAvg speedWind from/ knotsBaromVisibWave heightAir tempDewpointWater temp
2015-May-27 10:29N 36°08' E 122°10'1311.7
2015-May-27 09:22N 36°16' E 122°23'1011.8
2015-May-27 08:33N 36°21' E 122°33'1111.2
2015-May-27 07:33N 36°31' E 122°38'1111.3
2015-May-27 06:33N 36°43' E 122°41'1110.9
2015-May-27 05:33N 36°53' E 122°43'1010.5
2015-May-27 04:33N 37°04' E 122°45'1010.5
2015-May-27 03:33N 37°14' E 122°47'1110.8
2015-May-27 02:34N 37°25' E 122°47'1010.0
2015-May-27 01:33N 37°32' E 122°38'1211.6
2015-May-27 00:34N 37°39' E 122°26'1211.8
2015-May-26 23:33N 37°46' E 122°15'1312.4
2015-May-26 22:33N 37°54' E 122°02'1412.9
2015-May-26 21:28N 38°02' E 121°48'1112.0
2015-May-26 20:32N 38°09' E 121°36'17411.4
2015-May-26 05:17N 38°55' E 118°02'811.0
2015-May-26 04:33N 38°57' E 117°52'6 5.5
2015-May-26 03:31N 38°59' E 117°45'0 0.0
2015-May-26 02:31N 38°59' E 117°45'0 0.0
2015-May-26 01:31N 38°59' E 117°45'0 0.0
2015-May-26 00:31N 38°59' E 117°45'0 0.0
2015-May-25 23:31N 38°59' E 117°45'0 0.0
2015-May-25 22:25N 38°59' E 117°45'0 0.0
2015-May-25 21:31N 38°59' E 117°45'0 0.0
2015-May-25 20:31N 38°59' E 117°45'0 0.0
2015-May-25 19:25N 38°59' E 117°45'0 0.0
2015-May-25 18:31N 38°59' E 117°45'0 0.0
2015-May-25 17:31N 38°59' E 117°45'0 0.0
2015-May-25 16:25N 38°59' E 117°45'0 0.0
2015-May-25 15:31N 38°59' E 117°45'0 0.0
2015-May-25 14:31N 38°59' E 117°45'0 0.0
2015-May-25 13:31N 38°59' E 117°45'0 0.0
2015-May-25 12:31N 38°59' E 117°45'0 0.0
2015-May-25 11:31N 38°59' E 117°45'0 0.0
2015-May-25 10:31N 38°59' E 117°45'0 0.0
2015-May-25 09:31N 38°59' E 117°45'0 0.0
2015-May-25 08:31N 38°59' E 117°45'0 0.0
2015-May-25 07:31N 38°59' E 117°45'0 0.0
2015-May-25 06:31N 38°59' E 117°45'0 0.0
2015-May-25 05:31N 38°59' E 117°45'0 0.0
2015-May-25 04:31N 38°59' E 117°45'0 0.0
2015-May-25 03:31N 38°59' E 117°45'0 0.0
2015-May-25 02:31N 38°59' E 117°45'0 0.0
2015-May-25 01:31N 38°59' E 117°45'0 0.0
2015-May-25 00:31N 38°59' E 117°45'0 0.0
2015-May-24 23:31N 38°59' E 117°45'0 0.0
2015-May-24 22:25N 38°59' E 117°45'0 0.0
2015-May-24 21:31N 38°59' E 117°45'0 0.0
2015-May-24 20:31N 38°59' E 117°45'0 0.0
2015-May-24 19:31N 38°59' E 117°45'0 0.0
2015-May-24 18:31N 38°59' E 117°45'0 0.0
2015-May-24 17:31N 38°59' E 117°45'0 0.0
2015-May-24 16:31N 38°59' E 117°45'0 0.0
2015-May-24 15:31N 38°59' E 117°45'0 0.0
2015-May-24 14:31N 38°59' E 117°45'0 0.0
2015-May-24 13:31N 38°59' E 117°45'0 0.0
2015-May-24 12:31N 38°59' E 117°45'0 0.0
2015-May-24 11:31N 38°59' E 117°45'0 0.0
2015-May-24 10:25N 38°59' E 117°45'0 0.0
2015-May-24 09:31N 38°59' E 117°45'0 0.0
2015-May-24 08:31N 38°59' E 117°45'0 0.0
2015-May-24 07:31N 38°59' E 117°45'0 0.0
2015-May-24 06:31N 38°59' E 117°45'0 0.0
2015-May-24 05:31N 38°59' E 117°45'0 0.0
2015-May-24 04:31N 38°59' E 117°45'0 0.0
2015-May-24 03:31N 38°59' E 117°45'1 0.6
2015-May-24 02:33N 38°59' E 117°45'10 9.6
2015-May-24 01:33N 38°57' E 117°58'8 8.3
2015-May-24 00:32N 38°56' E 118°08'2 2.3
2015-May-23 23:30N 38°56' E 118°11'0 0.1
2015-May-23 22:18N 38°56' E 118°11'0 0.1
2015-May-23 21:30N 38°56' E 118°11'0 0.0
2015-May-23 20:24N 38°56' E 118°11'0 0.0
2015-May-23 19:24N 38°56' E 118°11'0 0.0
2015-May-23 17:18N 38°56' E 118°11'0 0.1
2015-May-23 16:18N 38°56' E 118°11'1 0.2
2015-May-23 09:31N 38°55' E 118°10'5 2.3
2015-May-23 07:29N 38°57' E 118°04'16211.3
2015-May-22 17:12N 38°26' E 121°28'811.7
2015-May-22 16:29N 38°23' E 121°38'1111.6
2015-May-22 15:31N 38°19' E 121°51'11810.7
2015-May-22 04:31N 36°58' E 123°41'1111.7
2015-May-22 03:33N 36°48' E 123°46'1211.7
2015-May-22 02:32N 36°38' E 123°54'1211.8
2015-May-22 01:31N 36°26' E 123°53'1212.6
2015-May-22 00:34N 36°14' E 123°57'1312.4
2015-May-21 23:32N 36°02' E 124°02'1212.0
2015-May-21 22:32N 35°50' E 124°06'1211.9
2015-May-21 21:32N 35°39' E 124°11'1211.8
2015-May-21 20:30N 35°27' E 124°15'1212.6
2015-May-21 19:34N 35°16' E 124°19'30710.1
2015-May-20 13:09N 34°01' E 130°21'812.8
2015-May-20 12:32N 34°02' E 130°31'1312.8
2015-May-20 11:31N 34°03' E 130°46'  

Dump ship's entire track history